createdAt,value
2024-04-22T00:00:48.914Z,2.90
2024-04-22T00:11:04.622Z,3.10
2024-04-22T00:21:13.272Z,2.90
2024-04-22T00:31:18.172Z,2.90
2024-04-22T00:41:27.662Z,2.70
2024-04-22T00:51:32.596Z,2.70
2024-04-22T01:01:43.065Z,2.60
2024-04-22T01:11:48.182Z,2.50
2024-04-22T01:21:55.970Z,2.70
2024-04-22T01:32:00.834Z,2.20
2024-04-22T01:42:09.353Z,2.30
2024-04-22T01:52:15.115Z,2.70
2024-04-22T02:02:22.668Z,2.70
2024-04-22T02:12:29.824Z,2.50
2024-04-22T02:22:37.464Z,2.40
2024-04-22T02:32:42.442Z,2.60
2024-04-22T02:42:49.919Z,2.30
2024-04-22T02:52:54.795Z,2.30
2024-04-22T03:03:02.393Z,2.30
2024-04-22T03:13:10.550Z,2.40
2024-04-22T03:23:18.178Z,2.10
2024-04-22T03:33:23.167Z,2.00
2024-04-22T03:43:30.674Z,1.90
2024-04-22T03:53:35.685Z,1.90
2024-04-22T04:03:43.258Z,4.60
2024-04-22T04:13:48.136Z,1.40
2024-04-22T04:23:55.699Z,1.50
2024-04-22T04:34:00.588Z,1.50
2024-04-22T04:44:08.426Z,1.40
2024-04-22T04:54:13.322Z,1.30
2024-04-22T05:04:20.908Z,1.60
2024-04-22T05:14:25.844Z,1.50
2024-04-22T05:24:33.447Z,2.00
2024-04-22T05:34:54.503Z,2.10
2024-04-22T05:45:01.961Z,2.40
2024-04-22T05:55:07.193Z,2.50
2024-04-22T06:05:14.806Z,3.30
2024-04-22T06:15:19.770Z,4.10
2024-04-22T06:25:27.359Z,4.10
2024-04-22T06:35:32.267Z,4.30
2024-04-22T06:45:39.779Z,5.00
2024-04-22T06:55:45.250Z,5.40
2024-04-22T07:05:53.472Z,5.40
2024-04-22T07:15:58.326Z,5.30
2024-04-22T07:26:09.116Z,5.30
2024-04-22T07:36:21.577Z,4.80
2024-04-22T07:46:29.335Z,4.90
2024-04-22T07:56:34.889Z,5.00
2024-04-22T08:06:44.080Z,5.50
2024-04-22T08:16:49.050Z,6.20
2024-04-22T08:27:00.813Z,6.70
2024-04-22T08:37:05.906Z,7.40
2024-04-22T08:47:13.672Z,8.40
2024-04-22T08:57:18.848Z,11.20
2024-04-22T09:07:26.361Z,11.20
2024-04-22T09:17:31.556Z,9.60
2024-04-22T09:27:40.556Z,8.30
2024-04-22T09:37:49.237Z,8.10
2024-04-22T09:47:57.930Z,11.30
2024-04-22T09:58:04.370Z,8.40
2024-04-22T10:08:12.101Z,9.80
2024-04-22T10:18:17.364Z,10.70
2024-04-22T10:28:25.003Z,12.10
2024-04-22T10:38:29.944Z,13.10
2024-04-22T10:48:37.709Z,12.90
2024-04-22T10:58:42.665Z,11.30
2024-04-22T11:08:50.454Z,10.20
2024-04-22T11:19:06.177Z,11.20
2024-04-22T11:29:14.763Z,12.60
2024-04-22T11:39:19.678Z,9.70
2024-04-22T11:49:27.267Z,12.90
2024-04-22T11:59:32.146Z,11.80
2024-04-22T12:09:39.622Z,11.70
2024-04-22T12:19:44.546Z,12.80
2024-04-22T12:29:51.988Z,12.20
2024-04-22T12:39:56.833Z,10.70
2024-04-22T12:50:20.420Z,11.00
2024-04-22T13:00:25.284Z,9.80
2024-04-22T13:10:32.818Z,8.90
2024-04-22T13:20:37.791Z,8.80
2024-04-22T13:30:45.493Z,12.60
2024-04-22T13:40:50.434Z,11.30
2024-04-22T13:50:58.160Z,9.80
2024-04-22T14:01:03.287Z,8.20
2024-04-22T14:11:11.767Z,7.40
2024-04-22T14:21:18.527Z,8.00
2024-04-22T14:31:26.840Z,9.10
2024-04-22T14:41:31.778Z,8.90
2024-04-22T14:51:39.294Z,8.00
2024-04-22T15:01:44.170Z,7.80
2024-04-22T15:11:51.826Z,7.50
2024-04-22T15:21:56.722Z,7.00
2024-04-22T15:32:04.321Z,6.70
2024-04-22T15:42:09.436Z,6.80
2024-04-22T15:52:16.932Z,6.40
2024-04-22T16:02:23.202Z,5.80
2024-04-22T16:12:30.696Z,5.60
2024-04-22T16:22:35.606Z,5.40
2024-04-22T16:32:43.212Z,4.80
2024-04-22T16:42:48.278Z,6.10
2024-04-22T16:52:55.775Z,4.90
2024-04-22T17:03:00.715Z,4.80
2024-04-22T17:13:08.260Z,4.70
2024-04-22T17:23:21.556Z,4.40
2024-04-22T17:33:29.120Z,4.40
2024-04-22T17:43:34.089Z,4.00
2024-04-22T17:53:41.647Z,3.90
2024-04-22T18:03:47.442Z,3.80
2024-04-22T18:13:55.054Z,3.60
2024-04-22T18:23:59.902Z,3.70
2024-04-22T18:34:07.558Z,3.10
2024-04-22T18:44:12.597Z,3.60
2024-04-22T18:54:20.202Z,2.90
2024-04-22T19:04:25.162Z,2.90
2024-04-22T19:14:32.660Z,2.60
2024-04-22T19:24:39.047Z,2.70
2024-04-22T19:34:46.814Z,2.60
2024-04-22T19:44:55.910Z,2.70
2024-04-22T19:55:03.576Z,2.60
2024-04-22T20:05:08.676Z,2.50
2024-04-22T20:15:27.403Z,2.60
2024-04-22T20:25:32.353Z,2.40
2024-04-22T20:35:40.356Z,2.00
2024-04-22T20:45:45.356Z,2.10
2024-04-22T20:55:57.568Z,2.10
2024-04-22T21:06:04.486Z,2.00
2024-04-22T21:16:12.781Z,1.60
2024-04-22T21:26:17.714Z,1.50
2024-04-22T21:36:25.568Z,1.60
2024-04-22T21:46:30.463Z,0.80
2024-04-22T21:56:35.051Z,1.60
2024-04-22T22:07:17.237Z,1.70
2024-04-22T22:17:24.846Z,1.20
2024-04-22T22:27:29.707Z,1.10
2024-04-22T22:37:37.179Z,1.60
2024-04-22T22:47:42.192Z,1.00
2024-04-22T22:57:49.700Z,1.10
2024-04-22T23:07:54.582Z,1.50
2024-04-22T23:18:02.234Z,1.70
2024-04-22T23:28:07.518Z,1.50
2024-04-22T23:38:15.133Z,1.40
2024-04-22T23:48:20.112Z,1.40
2024-04-22T23:58:28.898Z,1.50
